Time,TemperatureF,DewpointF,PressureIn,WindDirection,WindDirectionDegrees,WindSpeedMPH,WindSpeedGustMPH,Humidity,HourlyPrecipIn,Conditions,Clouds,dailyrainin,SolarRadiationWatts/m^2,SoftwareType,DateUTC
2013-04-27 00:02:00,50.0,50.0,-100.00,SSW,209,2.0,7.0,100,0.00,,,0.15,0.000000,,2013-04-27 05:02:00,
2013-04-27 00:32:00,49.0,49.0,-100.00,SW,214,3.0,7.0,100,0.02,,,0.17,0.000000,,2013-04-27 05:32:00,
2013-04-27 00:42:00,49.0,49.0,-100.00,SW,214,3.0,7.0,100,0.02,,,0.17,0.000000,,2013-04-27 05:42:00,
2013-04-27 00:52:00,49.0,49.0,-100.00,SW,214,3.0,7.0,100,0.02,,,0.17,0.000000,,2013-04-27 05:52:00,
2013-04-27 01:02:00,49.0,49.0,-100.00,SW,214,3.0,7.0,100,0.02,,,0.17,0.000000,,2013-04-27 06:02:00,
2013-04-27 01:32:00,49.0,49.0,-100.00,South,182,1.0,5.0,100,0.01,,,0.18,0.000000,,2013-04-27 06:32:00,
2013-04-27 01:42:00,49.0,49.0,-100.00,South,182,1.0,5.0,100,0.01,,,0.18,0.000000,,2013-04-27 06:42:00,
2013-04-27 01:52:00,49.0,49.0,-100.00,South,182,1.0,5.0,100,0.01,,,0.18,0.000000,,2013-04-27 06:52:00,
2013-04-27 02:01:00,49.0,49.0,-100.00,South,182,1.0,5.0,100,0.01,,,0.18,0.000000,,2013-04-27 07:01:00,
2013-04-27 02:32:00,49.0,49.0,-100.00,SE,137,1.0,2.0,100,0.05,,,0.23,0.000000,,2013-04-27 07:32:00,
2013-04-27 02:42:00,49.0,49.0,-100.00,SE,137,1.0,2.0,100,0.05,,,0.23,0.000000,,2013-04-27 07:42:00,
2013-04-27 02:52:00,49.0,49.0,-100.00,SE,137,1.0,2.0,100,0.05,,,0.23,0.000000,,2013-04-27 07:52:00,
2013-04-27 03:01:00,49.0,49.0,-100.00,SE,137,1.0,2.0,100,0.05,,,0.23,0.000000,,2013-04-27 08:01:00,
2013-04-27 03:33:00,49.0,49.0,-100.00,ESE,119,1.0,3.0,100,0.03,,,0.26,0.000000,,2013-04-27 08:33:00,
2013-04-27 03:42:00,49.0,49.0,-100.00,ESE,119,1.0,3.0,100,0.03,,,0.26,0.000000,,2013-04-27 08:42:00,
2013-04-27 03:52:00,49.0,49.0,-100.00,ESE,119,1.0,3.0,100,0.03,,,0.26,0.000000,,2013-04-27 08:52:00,
2013-04-27 04:01:00,49.0,49.0,-100.00,ESE,119,1.0,3.0,100,0.03,,,0.26,0.000000,,2013-04-27 09:01:00,
2013-04-27 04:33:00,49.0,49.0,-100.00,South,171,3.0,4.0,100,0.03,,,0.29,0.000000,,2013-04-27 09:33:00,
2013-04-27 04:43:00,49.0,49.0,-100.00,South,171,3.0,4.0,100,0.03,,,0.29,0.000000,,2013-04-27 09:43:00,
2013-04-27 04:53:00,49.0,49.0,-100.00,South,171,3.0,4.0,100,0.03,,,0.29,0.000000,,2013-04-27 09:53:00,
2013-04-27 05:02:00,49.0,49.0,-100.00,South,171,3.0,4.0,100,0.03,,,0.29,0.000000,,2013-04-27 10:02:00,
2013-04-27 05:33:00,49.0,49.0,-100.00,NE,52,2.0,5.0,100,0.01,,,0.30,0.000000,,2013-04-27 10:33:00,
2013-04-27 05:42:00,49.0,49.0,-100.00,NE,52,2.0,5.0,100,0.01,,,0.30,0.000000,,2013-04-27 10:42:00,
2013-04-27 05:52:00,49.0,49.0,-100.00,NE,52,2.0,5.0,100,0.01,,,0.30,0.000000,,2013-04-27 10:52:00,
2013-04-27 06:02:00,49.0,49.0,-100.00,NE,52,2.0,5.0,100,0.01,,,0.30,0.000000,,2013-04-27 11:02:00,
2013-04-27 06:32:00,49.0,49.0,-100.00,SE,124,1.0,3.0,100,0.01,,,0.31,0.000000,,2013-04-27 11:32:00,
2013-04-27 06:42:00,49.0,49.0,-100.00,SE,124,1.0,3.0,100,0.01,,,0.31,0.000000,,2013-04-27 11:42:00,
2013-04-27 06:52:00,49.0,49.0,-100.00,SE,124,1.0,3.0,100,0.01,,,0.31,0.000000,,2013-04-27 11:52:00,
2013-04-27 07:01:00,49.0,49.0,-100.00,SE,124,1.0,3.0,100,0.01,,,0.31,0.000000,,2013-04-27 12:01:00,
2013-04-27 07:32:00,50.0,50.0,-100.00,SSE,152,2.0,4.0,100,0.00,,,0.31,14.000000,,2013-04-27 12:32:00,
2013-04-27 07:42:00,50.0,50.0,-100.00,SSE,152,2.0,4.0,100,0.00,,,0.31,14.000000,,2013-04-27 12:42:00,
2013-04-27 07:52:00,50.0,50.0,-100.00,SSE,152,2.0,4.0,100,0.00,,,0.31,14.000000,,2013-04-27 12:52:00,
2013-04-27 08:02:00,50.0,50.0,-100.00,SSE,152,2.0,4.0,100,0.00,,,0.31,14.000000,,2013-04-27 13:02:00,
2013-04-27 08:32:00,51.0,51.0,-100.00,SE,131,2.0,5.0,100,0.07,,,0.38,20.000000,,2013-04-27 13:32:00,
2013-04-27 08:42:00,51.0,51.0,-100.00,SE,131,2.0,5.0,100,0.07,,,0.38,20.000000,,2013-04-27 13:42:00,
2013-04-27 08:52:00,51.0,51.0,-100.00,SE,131,2.0,5.0,100,0.07,,,0.38,20.000000,,2013-04-27 13:52:00,
2013-04-27 09:02:00,51.0,51.0,-100.00,SE,131,2.0,5.0,100,0.07,,,0.38,20.000000,,2013-04-27 14:02:00,
2013-04-27 09:32:00,52.0,52.0,-100.00,SSE,160,2.0,6.0,100,0.11,,,0.49,31.000000,,2013-04-27 14:32:00,
2013-04-27 09:42:00,52.0,52.0,-100.00,SSE,160,2.0,6.0,100,0.11,,,0.49,31.000000,,2013-04-27 14:42:00,
2013-04-27 09:52:00,52.0,52.0,-100.00,SSE,160,2.0,6.0,100,0.11,,,0.49,31.000000,,2013-04-27 14:52:00,
2013-04-27 10:01:00,52.0,52.0,-100.00,SSE,160,2.0,6.0,100,0.11,,,0.49,31.000000,,2013-04-27 15:01:00,
2013-04-27 10:33:00,52.0,52.0,-100.00,SSE,161,3.0,7.0,100,0.11,,,0.60,29.000000,,2013-04-27 15:33:00,
2013-04-27 10:43:00,52.0,52.0,-100.00,SSE,161,3.0,7.0,100,0.11,,,0.60,29.000000,,2013-04-27 15:43:00,
2013-04-27 10:53:00,52.0,52.0,-100.00,SSE,161,3.0,7.0,100,0.11,,,0.60,29.000000,,2013-04-27 15:53:00,
2013-04-27 11:03:00,52.0,52.0,-100.00,SSE,161,3.0,7.0,100,0.11,,,0.60,29.000000,,2013-04-27 16:03:00,
2013-04-27 11:33:00,53.0,53.0,-100.00,SSE,163,4.0,10.0,100,0.23,,,0.83,18.000000,,2013-04-27 16:33:00,
2013-04-27 11:42:00,53.0,53.0,-100.00,SSE,163,4.0,10.0,100,0.23,,,0.83,18.000000,,2013-04-27 16:42:00,
2013-04-27 11:53:00,53.0,53.0,-100.00,SSE,163,4.0,10.0,100,0.23,,,0.83,18.000000,,2013-04-27 16:53:00,
2013-04-27 12:02:00,53.0,53.0,-100.00,SSE,163,4.0,10.0,100,0.23,,,0.83,18.000000,,2013-04-27 17:02:00,
2013-04-27 12:32:00,54.0,54.0,-100.00,South,188,4.0,11.0,100,0.25,,,1.08,31.000000,,2013-04-27 17:32:00,
2013-04-27 12:42:00,54.0,54.0,-100.00,South,188,4.0,11.0,100,0.25,,,1.08,31.000000,,2013-04-27 17:42:00,
2013-04-27 12:53:00,54.0,54.0,-100.00,South,188,4.0,11.0,100,0.25,,,1.08,31.000000,,2013-04-27 17:53:00,
2013-04-27 13:02:00,54.0,54.0,-100.00,South,188,4.0,11.0,100,0.25,,,1.08,31.000000,,2013-04-27 18:02:00,
2013-04-27 13:32:00,58.0,58.0,-100.00,South,170,3.0,8.0,100,0.06,,,1.14,210.000000,,2013-04-27 18:32:00,
2013-04-27 13:42:00,58.0,58.0,-100.00,South,170,3.0,8.0,100,0.06,,,1.14,210.000000,,2013-04-27 18:42:00,
2013-04-27 13:52:00,58.0,58.0,-100.00,South,170,3.0,8.0,100,0.06,,,1.14,210.000000,,2013-04-27 18:52:00,
2013-04-27 14:02:00,58.0,58.0,-100.00,South,170,3.0,8.0,100,0.06,,,1.14,210.000000,,2013-04-27 19:02:00,
2013-04-27 14:32:00,57.0,56.0,-100.00,SSE,164,4.0,11.0,98,0.00,,,1.14,232.000000,,2013-04-27 19:32:00,
2013-04-27 14:42:00,57.0,56.0,-100.00,SSE,164,4.0,11.0,98,0.00,,,1.14,232.000000,,2013-04-27 19:42:00,
2013-04-27 14:53:00,57.0,56.0,-100.00,SSE,164,4.0,11.0,98,0.00,,,1.14,232.000000,,2013-04-27 19:53:00,
2013-04-27 15:02:00,57.0,56.0,-100.00,SSE,164,4.0,11.0,98,0.00,,,1.14,232.000000,,2013-04-27 20:02:00,
2013-04-27 15:32:00,56.0,56.0,-100.00,South,183,3.0,12.0,99,0.01,,,1.15,69.000000,,2013-04-27 20:32:00,
2013-04-27 15:42:00,56.0,56.0,-100.00,South,183,3.0,12.0,99,0.01,,,1.15,69.000000,,2013-04-27 20:42:00,
2013-04-27 15:52:00,56.0,56.0,-100.00,South,183,3.0,12.0,99,0.01,,,1.15,69.000000,,2013-04-27 20:52:00,
2013-04-27 16:02:00,56.0,56.0,-100.00,South,183,3.0,12.0,99,0.01,,,1.15,69.000000,,2013-04-27 21:02:00,
2013-04-27 16:33:00,56.0,56.0,-100.00,SSE,168,5.0,13.0,100,0.01,,,1.13,87.000000,,2013-04-27 21:33:00,
2013-04-27 16:43:00,56.0,56.0,-100.00,SSE,168,5.0,13.0,100,0.01,,,1.13,87.000000,,2013-04-27 21:43:00,
2013-04-27 16:53:00,56.0,56.0,-100.00,SSE,168,5.0,13.0,100,0.01,,,1.13,87.000000,,2013-04-27 21:53:00,
2013-04-27 17:02:00,56.0,56.0,-100.00,SSE,168,5.0,13.0,100,0.01,,,1.13,87.000000,,2013-04-27 22:02:00,
2013-04-27 17:32:00,56.0,56.0,-100.00,SSE,158,4.0,12.0,100,0.00,,,1.05,73.000000,,2013-04-27 22:32:00,
2013-04-27 17:42:00,56.0,56.0,-100.00,SSE,158,4.0,12.0,100,0.00,,,1.05,73.000000,,2013-04-27 22:42:00,
2013-04-27 17:52:00,56.0,56.0,-100.00,SSE,158,4.0,12.0,100,0.00,,,1.05,73.000000,,2013-04-27 22:52:00,
2013-04-27 18:02:00,56.0,56.0,-100.00,SSE,158,4.0,12.0,100,0.00,,,1.05,73.000000,,2013-04-27 23:02:00,
2013-04-27 18:32:00,57.0,57.0,-100.00,SSE,162,4.0,12.0,99,0.00,,,1.02,131.000000,,2013-04-27 23:32:00,
2013-04-27 18:42:00,57.0,57.0,-100.00,SSE,162,4.0,12.0,99,0.00,,,1.02,131.000000,,2013-04-27 23:42:00,
2013-04-27 18:52:00,57.0,57.0,-100.00,SSE,162,4.0,12.0,99,0.00,,,1.02,131.000000,,2013-04-27 23:52:00,
2013-04-27 19:01:00,57.0,57.0,-100.00,SSE,162,4.0,12.0,99,0.00,,,1.02,131.000000,,2013-04-28 00:01:00,
2013-04-27 20:32:00,54.0,54.0,-100.00,South,174,3.0,8.0,100,-99.99,,,1.08,0.000000,,2013-04-28 01:32:00,
2013-04-27 20:42:00,54.0,54.0,-100.00,South,174,3.0,8.0,100,-99.99,,,1.08,0.000000,,2013-04-28 01:42:00,
2013-04-27 20:52:00,54.0,54.0,-100.00,South,174,3.0,8.0,100,-99.99,,,1.08,0.000000,,2013-04-28 01:52:00,
2013-04-27 21:02:00,54.0,54.0,-100.00,South,174,3.0,8.0,100,-99.99,,,1.08,0.000000,,2013-04-28 02:02:00,
2013-04-27 21:32:00,54.0,54.0,-100.00,SSE,154,3.0,11.0,100,0.00,,,1.08,0.000000,,2013-04-28 02:32:00,
2013-04-27 21:42:00,54.0,54.0,-100.00,SSE,154,3.0,11.0,100,0.00,,,1.08,0.000000,,2013-04-28 02:42:00,
2013-04-27 21:52:00,54.0,54.0,-100.00,SSE,154,3.0,11.0,100,0.00,,,1.08,0.000000,,2013-04-28 02:52:00,
2013-04-27 22:01:00,54.0,54.0,-100.00,SSE,154,3.0,11.0,100,0.00,,,1.08,0.000000,,2013-04-28 03:01:00,
2013-04-27 22:33:00,55.0,55.0,-100.00,North,5,5.0,14.0,100,0.00,,,1.08,0.000000,,2013-04-28 03:33:00,
2013-04-27 22:43:00,55.0,55.0,-100.00,North,5,5.0,14.0,100,0.00,,,1.08,0.000000,,2013-04-28 03:43:00,
2013-04-27 22:53:00,55.0,55.0,-100.00,North,5,5.0,14.0,100,0.00,,,1.08,0.000000,,2013-04-28 03:53:00,
2013-04-27 23:02:00,55.0,55.0,-100.00,North,5,5.0,14.0,100,0.00,,,1.08,0.000000,,2013-04-28 04:02:00,
2013-04-27 23:32:00,54.0,54.0,-100.00,ESE,110,2.0,20.0,100,0.61,,,1.69,0.000000,,2013-04-28 04:32:00,
2013-04-27 23:43:00,54.0,54.0,-100.00,ESE,110,2.0,20.0,100,0.61,,,1.69,0.000000,,2013-04-28 04:43:00,
2013-04-27 23:53:00,54.0,54.0,-100.00,ESE,110,2.0,20.0,100,0.61,,,1.69,0.000000,,2013-04-28 04:53:00,